Currently 71°F in Perris, California, USA
71°F
71°F / 58°F
4 mph SW
0.00"
Sunday, May 20, 2018 12:47 PM PDT

Perris, California Weather Summary
Last 36 Hours

Temperature Winds Hourly Humidity Dewpoint
Time Report Norm Report Norm Max Gusts Precip. Rpt. Norm Rpt. Norm Pressure
1,2Sun 12:47 PM  71.5°F  75°F  4 mph SW  5 mph  8 mph  0.00"  63%  42%  58°F  50°F  N/A
Sun 12:00 PM  68.6°F  74°F  3 mph S  4 mph  9 mph  0.00"  67%  45%  57°F  50°F  N/A
Sun 11:00 AM  64.5°F  70°F  1 mph W  4 mph  7 mph  0.00"  77%  52%  57°F  51°F  N/A
Sun 10:00 AM  61.2°F  67°F  2 mph SE  3 mph  6 mph  0.00"  85%  61%  57°F  52°F  N/A
Sun 09:00 AM  59.1°F  63°F  4 mph SE  3 mph  6 mph  0.00"  91%  71%  56°F  53°F  N/A
Sun 08:00 AM  58.8°F  59°F  4 mph S  3 mph  7 mph  0.00"  92%  80%  56°F  52°F  N/A
Sun 07:00 AM  58.4°F  55°F  calm  3 mph  3 mph  0.00"  92%  85%  56°F  51°F  N/A
Sun 06:00 AM  58.0°F  55°F  calm  2 mph  5 mph  0.00"  93%  85%  56°F  51°F  29.87"
3Sun 05:33 AM  57.8°F  55°F  2 mph SE  2 mph  5 mph  ----  93%  85%  56°F  51°F  29.86"
Sun 05:00 AM  58.0°F  56°F  calm  2 mph  5 mph  0.00"  94%  85%  56°F  51°F  29.85"
Sun 04:00 AM  58.0°F  56°F  3 mph NW  2 mph  7 mph  0.00"  94%  84%  56°F  51°F  29.84"
Sun 03:00 AM  58.1°F  57°F  4 mph W  3 mph  7 mph  0.00"  93%  83%  56°F  51°F  29.84"
Sun 02:00 AM  58.4°F  58°F  calm  3 mph  5 mph  0.00"  92%  82%  56°F  52°F  29.85"
Sun 01:00 AM  58.3°F  59°F  2 mph SE  3 mph  4 mph  0.00"  93%  80%  56°F  52°F  29.85"
Sun 12:00 AM  57.8°F  59°F  calm  3 mph  7 mph  0.00"  93%  77%  56°F  52°F  29.87"
Sat 11:00 PM  58.0°F  61°F  4 mph SE  4 mph  5 mph  0.00"  93%  74%  56°F  52°F  29.87"
Sat 10:00 PM  59.0°F  62°F  3 mph NW  4 mph  10 mph  0.00"  89%  71%  56°F  52°F  29.86"
Sat 09:00 PM  60.5°F  64°F  6 mph NW  5 mph  11 mph  0.00"  85%  65%  56°F  52°F  29.85"
Sat 08:00 PM  63.2°F  67°F  7 mph NW  5 mph  14 mph  0.00"  80%  57%  57°F  51°F  29.83"
Sat 07:00 PM  66.6°F  71°F  7 mph NW  6 mph  14 mph  0.00"  72%  48%  57°F  50°F  29.81"
Sat 06:00 PM  69.4°F  75°F  6 mph W  7 mph  18 mph  0.00"  65%  43%  57°F  50°F  29.80"
Sat 05:00 PM  71.2°F  77°F  8 mph SW  7 mph  15 mph  0.00"  61%  40%  56°F  50°F  29.79"
Sat 04:00 PM  71.6°F  78°F  6 mph NW  7 mph  13 mph  0.00"  60%  38%  56°F  50°F  29.80"
Sat 03:00 PM  70.6°F  79°F  7 mph W  6 mph  13 mph  0.00"  61%  37%  56°F  50°F  29.83"
Sat 02:00 PM  70.0°F  78°F  7 mph NW  6 mph  12 mph  0.00"  62%  38%  56°F  50°F  29.85"
Sat 01:00 PM  67.7°F  77°F  2 mph NW  5 mph  9 mph  0.00"  67%  40%  56°F  50°F  29.86"
Sat 12:00 PM  62.3°F  74°F  4 mph NW  4 mph  8 mph  0.00"  78%  43%  55°F  50°F  29.88"
Sat 11:00 AM  58.0°F  71°F  1 mph E  4 mph  7 mph  0.00"  87%  49%  54°F  51°F  29.89"
Sat 10:00 AM  55.9°F  68°F  1 mph SW  3 mph  7 mph  0.00"  93%  58%  54°F  52°F  29.90"
Sat 09:00 AM  54.4°F  64°F  calm  3 mph  6 mph  0.00"  96%  69%  53°F  53°F  29.91"
Sat 08:00 AM  54.0°F  59°F  calm  3 mph  4 mph  0.00"  97%  79%  53°F  52°F  29.89"
Sat 07:00 AM  53.1°F  56°F  calm  3 mph  3 mph  0.00"  97%  84%  52°F  51°F  29.88"
Sat 06:00 AM  53.0°F  55°F  calm  2 mph  4 mph  0.00"  97%  84%  52°F  51°F  29.87"
Sat 05:00 AM  53.1°F  56°F  calm  2 mph  5 mph  0.00"  98%  83%  52°F  51°F  29.86"
Sat 04:00 AM  52.8°F  57°F  1 mph S  2 mph  4 mph  0.00"  98%  82%  52°F  51°F  29.86"
Sat 03:00 AM  51.6°F  57°F  3 mph S  2 mph  6 mph  0.00"  98%  81%  51°F  51°F  29.86"
Sat 02:00 AM  53.1°F  58°F  3 mph SE  3 mph  5 mph  0.00"  97%  80%  52°F  52°F  29.87"
Sat 01:00 AM  54.4°F  59°F  3 mph SE  3 mph  4 mph  0.00"  94%  78%  53°F  52°F  29.87"

  1. Current weather data. No green row appears if the current weather data is also the high or low for the current day.
  2. High temperature for the current day.
  3. Low temperature for the current day.

The Perris, California weather pages are a service of WeatherCurrents. Perris is located in Southern California's Inland Empire, south of Riverside and north of Sun City, along the Interstate 215 freeway.
Copyright ©Sun May 20 12:47:38 PDT 2018  WeatherCurrents. All rights reserved. - Submit questions and comments - Privacy Policy

This page automatically refreshes every 10 minutes.